Time;durP1;ratioP1;P1;durP2;ratioP2;P2;SDS_P1;SDS_P2;PMS_P1;PMS_P2;Temp;Humidity;BMP_temperature;BMP_pressure;BME280_temperature;BME280_humidity;BME280_pressure;Samples;Min_cycle;Max_cycle;Signal;HPM_P1;HPM_P2
2021/04/12 00:01:54;;;;;;;22.87;11.83;;;10.00;66.70;;;;;;4159607;28;20460;-62
2021/04/12 00:03:59;;;;;;;20.10;10.37;;;10.00;67.00;;;;;;4159168;28;20502;-65
2021/04/12 00:06:11;;;;;;;21.60;10.23;;;9.90;67.10;;;;;;4155244;28;20107;-60
2021/04/12 00:08:30;;;;;;;20.03;9.87;;;9.90;67.30;;;;;;4159092;28;20075;-67
2021/04/12 00:11:01;;;;;;;20.73;10.23;;;9.90;67.50;;;;;;4160871;28;20429;-57
2021/04/12 00:13:36;;;;;;;21.00;10.60;;;9.90;67.70;;;;;;4156939;28;20037;-57
2021/04/12 00:15:43;;;;;;;22.67;10.70;;;10.00;67.90;;;;;;4160108;28;20041;-59
2021/04/12 00:17:48;;;;;;;23.17;11.17;;;9.90;68.20;;;;;;4158681;28;20025;-58
2021/04/12 00:20:16;;;;;;;22.90;10.90;;;9.80;68.80;;;;;;4160315;28;20071;-58
2021/04/12 00:22:31;;;;;;;22.53;11.13;;;9.70;69.30;;;;;;4159012;28;20037;-57
2021/04/12 00:24:52;;;;;;;21.90;10.67;;;9.60;70.10;;;;;;4158952;28;20489;-58
2021/04/12 00:27:08;;;;;;;18.33;9.35;;;9.50;69.90;;;;;;4159148;28;20041;-60
2021/04/12 00:29:23;;;;;;;17.07;9.53;;;9.40;70.80;;;;;;4159144;28;20436;-56
2021/04/12 00:31:32;;;;;;;22.57;10.63;;;9.30;71.20;;;;;;4159321;28;20557;-68
2021/04/12 00:33:39;;;;;;;18.77;11.50;;;9.20;71.40;;;;;;4159165;28;20030;-67
2021/04/12 00:35:52;;;;;;;24.80;12.23;;;9.10;73.40;;;;;;4159327;28;20095;-68
2021/04/12 00:38:19;;;;;;;24.00;11.90;;;9.00;74.90;;;;;;4158821;28;20477;-69
2021/04/12 00:40:32;;;;;;;24.30;12.03;;;8.80;78.90;;;;;;4159972;28;20087;-60
2021/04/12 00:42:56;;;;;;;25.43;12.30;;;8.60;79.10;;;;;;4158535;28;20034;-70
2021/04/12 00:45:25;;;;;;;25.53;12.80;;;8.60;82.50;;;;;;4158280;28;20095;-61
2021/04/12 00:47:43;;;;;;;25.47;13.33;;;8.50;84.10;;;;;;4147092;28;20112;-60
2021/04/12 00:50:07;;;;;;;21.83;13.27;;;8.50;83.20;;;;;;4159992;28;20041;-60
2021/04/12 00:52:40;;;;;;;25.97;13.67;;;8.60;82.40;;;;;;4154890;28;20045;-57
2021/04/12 00:55:02;;;;;;;23.57;13.27;;;8.60;83.70;;;;;;4159057;28;20037;-64
2021/04/12 00:57:27;;;;;;;24.27;11.87;;;8.60;83.70;;;;;;4158200;28;20444;-59
2021/04/12 01:00:01;;;;;;;23.87;12.13;;;8.70;84.10;;;;;;4159016;28;20477;-57
2021/04/12 01:02:16;;;;;;;24.30;12.97;;;8.70;85.70;;;;;;4159076;28;20051;-57
2021/04/12 01:04:23;;;;;;;24.20;11.60;;;8.70;87.10;;;;;;4158046;28;20025;-59
2021/04/12 01:07:01;;;;;;;23.80;11.17;;;8.70;87.90;;;;;;4158097;28;20049;-58
2021/04/12 01:09:27;;;;;;;21.00;11.30;;;8.60;89.10;;;;;;4141543;28;20088;-57
2021/04/12 01:11:31;;;;;;;20.90;10.57;;;8.60;90.00;;;;;;4154095;28;20765;-58
2021/04/12 01:14:08;;;;;;;20.23;10.60;;;8.60;88.80;;;;;;4158301;28;20025;-59
2021/04/12 01:16:46;;;;;;;21.97;10.93;;;8.60;91.20;;;;;;4159151;28;20033;-59
2021/04/12 01:19:17;;;;;;;22.17;10.47;;;8.60;90.60;;;;;;4157943;28;20119;-69
2021/04/12 01:21:55;;;;;;;14.68;8.75;;;8.70;90.00;;;;;;4158234;28;20489;-58
2021/04/12 01:24:23;;;;;;;23.67;9.60;;;8.70;89.10;;;;;;4159430;28;20033;-58
2021/04/12 01:26:52;;;;;;;20.60;9.33;;;8.80;88.90;;;;;;4157540;28;20045;-58
2021/04/12 01:29:34;;;;;;;20.17;10.30;;;8.90;88.20;;;;;;4159040;28;20091;-59
2021/04/12 01:32:13;;;;;;;20.03;9.47;;;8.90;89.00;;;;;;4150007;28;20127;-58
2021/04/12 01:34:33;;;;;;;21.43;10.93;;;8.90;88.30;;;;;;4157862;28;20429;-64
2021/04/12 01:36:44;;;;;;;23.37;10.57;;;8.90;88.40;;;;;;4158565;28;20037;-58
2021/04/12 01:39:01;;;;;;;24.27;10.93;;;8.80;88.50;;;;;;4156642;28;20297;-60
2021/04/12 01:41:26;;;;;;;25.10;10.90;;;8.80;90.40;;;;;;4159373;28;20033;-57
2021/04/12 01:43:36;;;;;;;20.40;11.00;;;8.70;90.40;;;;;;4157851;28;20092;-66
2021/04/12 01:45:47;;;;;;;17.88;10.20;;;8.70;90.50;;;;;;4158652;28;20045;-61
2021/04/12 01:48:25;;;;;;;23.90;10.63;;;8.70;91.30;;;;;;4157281;28;20555;-57
2021/04/12 01:50:36;;;;;;;19.23;9.70;;;8.70;91.50;;;;;;4158328;28;20498;-59
2021/04/12 01:53:06;;;;;;;22.13;10.87;;;8.70;91.10;;;;;;4157191;28;20037;-61
2021/04/12 01:55:11;;;;;;;25.95;10.38;;;8.60;91.00;;;;;;4142262;28;20050;-64
2021/04/12 01:57:17;;;;;;;20.33;10.70;;;8.60;91.50;;;;;;4156550;28;20029;-63
2021/04/12 01:59:46;;;;;;;21.53;10.17;;;8.60;91.50;;;;;;4158783;28;20021;-56
2021/04/12 02:02:08;;;;;;;21.50;9.93;;;8.60;92.20;;;;;;4156926;28;20060;-58
2021/04/12 02:04:45;;;;;;;26.60;10.43;;;8.60;92.90;;;;;;4157732;28;20025;-58
2021/04/12 02:07:10;;;;;;;16.50;10.17;;;8.60;93.40;;;;;;4158248;28;20338;-61
2021/04/12 02:09:35;;;;;;;19.60;11.17;;;8.50;92.90;;;;;;4140764;28;20033;-57
2021/04/12 02:11:53;;;;;;;19.07;10.47;;;8.50;93.00;;;;;;4142656;28;20490;-60
2021/04/12 02:14:31;;;;;;;17.50;9.83;;;8.50;92.90;;;;;;4152429;28;20496;-58
2021/04/12 02:16:32;;;;;;;25.90;10.70;;;8.60;94.00;;;;;;4152975;28;20037;-57
2021/04/12 02:18:55;;;;;;;21.20;10.23;;;8.60;93.30;;;;;;4156755;28;20060;-58
2021/04/12 02:21:05;;;;;;;20.77;11.53;;;8.50;94.00;;;;;;4157841;28;20033;-57
2021/04/12 02:23:14;;;;;;;;;;;8.50;94.50;;;;;;4157330;28;20078;-60
2021/04/12 02:25:30;;;;;;;21.77;10.77;;;8.40;96.70;;;;;;4157487;28;19917;-59
2021/04/12 02:27:31;;;;;;;23.47;12.27;;;8.40;95.40;;;;;;4155488;28;20049;-55
2021/04/12 02:29:38;;;;;;;24.17;12.83;;;8.40;95.40;;;;;;4158653;28;20049;-54
2021/04/12 02:32:04;;;;;;;27.73;12.90;;;8.40;96.00;;;;;;4156675;28;20025;-59
2021/04/12 02:34:32;;;;;;;22.43;11.53;;;8.30;96.50;;;;;;4158136;28;20437;-59
2021/04/12 02:37:08;;;;;;;26.40;12.17;;;8.40;96.90;;;;;;4156818;28;20033;-58
2021/04/12 02:39:20;;;;;;;25.80;12.10;;;8.40;97.50;;;;;;4156555;28;20108;-57
2021/04/12 02:41:41;;;;;;;22.57;11.70;;;8.40;96.30;;;;;;4156914;28;20083;-53
2021/04/12 02:44:06;;;;;;;20.60;10.57;;;8.40;96.30;;;;;;4156312;28;20092;-58
2021/04/12 02:46:41;;;;;;;24.80;10.53;;;8.40;95.80;;;;;;4157367;28;20397;-57
2021/04/12 02:49:13;;;;;;;22.27;12.37;;;8.40;96.20;;;;;;4156829;28;20057;-67
2021/04/12 02:51:38;;;;;;;22.63;11.40;;;8.40;96.50;;;;;;4155365;28;20087;-63
2021/04/12 02:54:37;;;;;;;18.70;10.73;;;8.40;96.30;;;;;;4156364;28;20432;-69
2021/04/12 02:56:54;;;;;;;22.40;11.30;;;8.40;96.40;;;;;;4137640;28;20045;-70
2021/04/12 02:59:10;;;;;;;22.30;10.90;;;8.40;96.80;;;;;;4139377;28;20096;-65
2021/04/12 03:01:29;;;;;;;21.13;10.50;;;8.40;96.30;;;;;;4127785;28;20053;-68
2021/04/12 03:03:40;;;;;;;18.73;10.50;;;8.40;96.80;;;;;;4157697;28;20037;-58
2021/04/12 03:06:11;;;;;;;22.90;11.30;;;8.40;96.50;;;;;;4156034;28;20033;-61
2021/04/12 03:08:31;;;;;;;31.30;11.20;;;8.40;96.80;;;;;;4157534;28;20107;-54
2021/04/12 03:11:19;;;;;;;20.40;11.27;;;8.50;96.70;;;;;;4140759;28;20140;-52
2021/04/12 03:13:58;;;;;;;23.87;11.17;;;8.40;97.70;;;;;;4138373;28;20501;-58
2021/04/12 03:16:25;;;;;;;21.93;10.57;;;8.40;97.30;;;;;;4156975;28;20039;-59
2021/04/12 03:18:51;;;;;;;26.53;10.90;;;8.40;97.00;;;;;;4150470;28;20037;-72
2021/04/12 03:20:55;;;;;;;25.20;10.33;;;8.40;97.20;;;;;;4156814;28;20029;-57
2021/04/12 03:23:23;;;;;;;27.30;11.73;;;8.50;96.60;;;;;;4155993;28;20037;-65
2021/04/12 03:25:33;;;;;;;21.47;10.93;;;8.50;97.00;;;;;;4145317;28;20631;-69
2021/04/12 03:28:10;;;;;;;22.23;10.43;;;8.50;96.50;;;;;;4156246;28;20045;-62
2021/04/12 03:30:39;;;;;;;22.47;10.83;;;8.50;96.80;;;;;;4159357;28;20088;-70
2021/04/12 03:32:46;;;;;;;18.33;10.53;;;8.50;97.00;;;;;;4159882;28;20091;-71
2021/04/12 03:35:18;;;;;;;23.37;11.30;;;8.50;96.70;;;;;;4160756;28;20104;-58
2021/04/12 03:37:25;;;;;;;19.77;10.20;;;8.50;96.90;;;;;;4159532;28;20764;-60
2021/04/12 03:39:47;;;;;;;20.83;11.00;;;8.50;96.50;;;;;;4159947;28;20444;-59
2021/04/12 03:42:17;;;;;;;23.07;11.10;;;8.50;97.10;;;;;;4160220;28;20068;-58
2021/04/12 03:44:44;;;;;;;23.02;10.35;;;8.50;97.60;;;;;;4158958;28;20037;-60
2021/04/12 03:47:19;;;;;;;19.80;10.47;;;8.50;97.60;;;;;;4159333;28;20057;-56
2021/04/12 03:49:42;;;;;;;29.47;10.60;;;8.60;97.30;;;;;;4158894;28;20052;-65
2021/04/12 03:52:01;;;;;;;19.90;10.00;;;8.60;97.00;;;;;;4159938;28;20037;-62
2021/04/12 03:54:08;;;;;;;25.07;10.43;;;8.50;97.20;;;;;;4158923;28;20091;-68
2021/04/12 03:56:31;;;;;;;21.73;10.00;;;8.50;96.70;;;;;;4160293;28;20444;-71
2021/04/12 03:58:53;;;;;;;18.70;9.20;;;8.60;96.90;;;;;;4158966;28;20646;-63
2021/04/12 04:00:59;;;;;;;17.80;9.73;;;8.60;96.60;;;;;;4161248;28;20493;-70
2021/04/12 04:03:31;;;;;;;21.00;9.83;;;8.70;96.40;;;;;;4158916;28;20034;-69
2021/04/12 04:05:44;;;;;;;23.63;10.23;;;8.60;96.50;;;;;;4148317;28;20071;-60
2021/04/12 04:08:24;;;;;;;21.80;9.37;;;8.70;96.60;;;;;;4159639;28;20030;-68
2021/04/12 04:10:40;;;;;;;15.40;9.53;;;8.70;96.50;;;;;;4158603;28;20091;-66
2021/04/12 04:13:09;;;;;;;17.13;9.17;;;8.70;96.50;;;;;;4160317;28;20034;-67
2021/04/12 04:15:29;;;;;;;18.87;9.03;;;8.70;96.10;;;;;;4147194;28;20096;-65
2021/04/12 04:17:55;;;;;;;17.80;8.70;;;8.70;96.00;;;;;;4156191;28;20041;-59
2021/04/12 04:20:17;;;;;;;15.73;9.13;;;8.80;96.10;;;;;;4158588;28;20045;-67
2021/04/12 04:22:33;;;;;;;15.50;8.87;;;8.80;95.90;;;;;;4159463;28;20052;-73
2021/04/12 04:24:58;;;;;;;15.43;8.53;;;8.80;96.00;;;;;;4159271;28;20123;-73
2021/04/12 04:27:08;;;;;;;13.87;8.30;;;8.80;96.10;;;;;;4159544;28;20045;-74
2021/04/12 04:29:30;;;;;;;23.00;8.65;;;8.90;95.80;;;;;;4158852;28;20033;-68
2021/04/12 04:31:45;;;;;;;18.13;8.87;;;8.90;95.50;;;;;;4158775;28;20030;-69
2021/04/12 04:34:04;;;;;;;16.73;8.87;;;9.00;95.50;;;;;;4159744;28;20452;-67
2021/04/12 04:36:24;;;;;;;21.13;9.13;;;9.00;95.30;;;;;;4158745;28;20022;-69
2021/04/12 04:39:08;;;;;;;22.63;9.00;;;9.00;95.20;;;;;;4160419;28;20033;-69
2021/04/12 04:41:40;;;;;;;17.47;8.90;;;9.10;95.20;;;;;;4149061;28;20270;-71
2021/04/12 04:43:59;;;;;;;17.03;7.50;;;9.20;95.10;;;;;;4157857;28;20038;-69
2021/04/12 04:46:34;;;;;;;18.20;8.67;;;9.30;94.70;;;;;;4157364;28;20037;-68
2021/04/12 04:48:47;;;;;;;18.57;8.83;;;9.40;94.70;;;;;;4156223;28;20091;-69
2021/04/12 04:50:51;;;;;;;23.93;9.13;;;9.40;94.40;;;;;;4158432;28;20055;-66
2021/04/12 04:53:29;;;;;;;18.03;8.90;;;9.60;94.00;;;;;;4142523;28;20144;-65
2021/04/12 04:55:48;;;;;;;23.93;9.27;;;9.70;93.90;;;;;;4149259;28;20033;-65
2021/04/12 04:58:09;;;;;;;18.30;9.73;;;9.80;93.40;;;;;;4157794;28;20091;-68
2021/04/12 05:00:22;;;;;;;20.47;9.43;;;9.80;93.20;;;;;;4158827;28;20033;-63
2021/04/12 05:02:46;;;;;;;22.40;9.47;;;10.10;92.50;;;;;;4157004;28;20056;-69
2021/04/12 05:05:14;;;;;;;17.87;9.03;;;10.70;91.70;;;;;;4157709;28;20084;-67
2021/04/12 05:07:27;;;;;;;16.53;8.57;;;10.90;91.20;;;;;;4157296;28;20041;-68
2021/04/12 05:09:45;;;;;;;16.60;9.00;;;10.90;90.30;;;;;;4158974;28;20804;-66
2021/04/12 05:12:48;;;;;;;22.17;8.83;;;10.80;89.90;;;;;;4156198;28;20990;-67
2021/04/12 05:15:13;;;;;;;20.00;8.90;;;10.70;90.00;;;;;;4123239;28;20481;-65
2021/04/12 05:17:33;;;;;;;28.50;9.43;;;10.60;90.20;;;;;;4107720;28;20047;-68
2021/04/12 05:19:46;;;;;;;30.13;10.70;;;10.70;90.30;;;;;;4119349;28;20038;-70
2021/04/12 05:22:29;;;;;;;21.77;9.70;;;11.00;90.10;;;;;;4142379;28;20025;-69
2021/04/12 05:24:54;;;;;;;39.33;11.67;;;11.40;89.10;;;;;;4140760;28;20038;-68
2021/04/12 05:27:17;;;;;;;40.10;10.57;;;11.90;87.60;;;;;;4142593;28;20092;-70
2021/04/12 05:29:48;;;;;;;68.57;13.33;;;12.60;86.00;;;;;;4141141;28;20038;-70
2021/04/12 05:31:56;;;;;;;92.27;14.53;;;13.30;84.80;;;;;;4141687;28;20387;-69
2021/04/12 05:34:31;;;;;;;100.20;13.00;;;13.90;81.50;;;;;;4141338;28;20107;-70
2021/04/12 05:37:09;;;;;;;87.60;15.73;;;14.30;79.50;;;;;;4141332;28;20136;-63
2021/04/12 05:39:47;;;;;;;62.60;12.73;;;14.50;76.60;;;;;;4143144;28;20384;-61
2021/04/12 05:42:19;;;;;;;51.47;17.03;;;15.10;72.50;;;;;;4140859;28;20038;-66
2021/04/12 05:44:53;;;;;;;38.40;12.33;;;15.30;70.10;;;;;;4140684;28;20493;-69
2021/04/12 05:47:17;;;;;;;29.10;13.03;;;15.40;70.80;;;;;;4140598;28;20525;-70
2021/04/12 05:49:37;;;;;;;28.90;12.97;;;15.60;67.70;;;;;;4139887;28;20046;-61
2021/04/12 05:51:57;;;;;;;19.70;10.73;;;15.60;66.00;;;;;;4141560;28;20038;-64
2021/04/12 05:54:04;;;;;;;21.60;9.85;;;15.60;65.70;;;;;;4141297;28;20033;-61
2021/04/12 05:56:31;;;;;;;19.13;9.93;;;15.50;66.10;;;;;;4141723;28;20167;-63
2021/04/12 05:58:51;;;;;;;16.30;9.73;;;15.50;64.90;;;;;;4140096;28;20108;-61
2021/04/12 06:01:17;;;;;;;15.55;8.95;;;15.60;63.70;;;;;;4141890;28;20783;-60
2021/04/12 06:04:01;;;;;;;23.17;10.13;;;16.00;63.60;;;;;;4140262;28;20033;-61
2021/04/12 06:06:21;;;;;;;17.30;9.03;;;15.70;62.80;;;;;;4141738;28;20049;-61
2021/04/12 06:08:38;;;;;;;14.45;7.40;;;15.50;62.60;;;;;;4140310;28;20107;-61
2021/04/12 06:11:11;;;;;;;15.67;7.27;;;15.40;62.30;;;;;;4141446;28;20034;-60
2021/04/12 06:13:34;;;;;;;12.80;7.43;;;14.80;62.90;;;;;;4140836;28;20466;-63
2021/04/12 06:15:44;;;;;;;18.17;8.53;;;14.70;63.30;;;;;;4140411;28;20026;-62
2021/04/12 06:17:53;;;;;;;14.77;7.60;;;14.60;64.40;;;;;;4140840;28;20092;-60
2021/04/12 06:20:09;;;;;;;16.33;10.40;;;14.60;64.20;;;;;;4140525;28;20073;-63
2021/04/12 06:22:24;;;;;;;21.23;9.60;;;15.00;63.20;;;;;;4141823;28;20103;-61
2021/04/12 06:24:53;;;;;;;21.13;9.03;;;15.20;62.40;;;;;;4140301;28;20041;-62
2021/04/12 06:27:25;;;;;;;17.47;9.80;;;15.40;62.20;;;;;;4141613;28;20700;-60
2021/04/12 06:29:51;;;;;;;16.87;9.70;;;15.50;62.30;;;;;;4140041;28;20046;-69
2021/04/12 06:32:30;;;;;;;16.13;9.30;;;15.60;61.90;;;;;;4141079;28;20030;-62
2021/04/12 06:34:42;;;;;;;15.60;8.63;;;15.80;61.60;;;;;;4140252;28;20030;-67
2021/04/12 06:36:58;;;;;;;18.37;8.83;;;15.80;61.50;;;;;;4140882;28;20064;-61
2021/04/12 06:39:22;;;;;;;16.87;9.00;;;15.70;61.60;;;;;;4140833;28;20030;-61
2021/04/12 06:41:32;;;;;;;16.83;8.40;;;15.70;61.60;;;;;;4139732;28;20560;-61
2021/04/12 06:43:51;;;;;;;22.27;7.82;;;15.50;61.70;;;;;;4140439;28;20030;-62
2021/04/12 06:46:29;;;;;;;15.80;8.37;;;15.50;61.80;;;;;;4139742;28;20072;-59
2021/04/12 06:49:08;;;;;;;12.27;7.73;;;15.20;62.70;;;;;;4141204;28;20127;-62
2021/04/12 06:51:26;;;;;;;13.00;7.73;;;15.20;62.70;;;;;;4139765;28;20089;-61
2021/04/12 06:54:14;;;;;;;15.33;7.30;;;15.00;62.90;;;;;;4140759;28;20025;-61
2021/04/12 06:56:18;;;;;;;13.10;7.40;;;15.10;62.50;;;;;;4137581;28;20037;-61
2021/04/12 06:59:06;;;;;;;17.40;7.67;;;15.20;62.80;;;;;;4139849;28;20049;-64
2021/04/12 07:01:42;;;;;;;18.17;7.87;;;15.00;62.30;;;;;;4140284;28;20046;-60
2021/04/12 07:04:05;;;;;;;19.83;7.87;;;15.00;63.00;;;;;;4138887;28;20038;-60
2021/04/12 07:06:31;;;;;;;15.90;8.83;;;14.80;62.80;;;;;;4141367;28;20038;-61
2021/04/12 07:08:42;;;;;;;20.57;9.50;;;14.70;62.60;;;;;;4138839;28;20100;-61
2021/04/12 07:11:14;;;;;;;15.53;8.87;;;14.60;63.70;;;;;;4140395;28;20088;-61
2021/04/12 07:13:45;;;;;;;16.70;8.40;;;14.90;63.80;;;;;;4139779;28;20092;-61
2021/04/12 07:16:24;;;;;;;21.20;10.00;;;15.10;63.10;;;;;;4139446;28;20116;-62
2021/04/12 07:18:51;;;;;;;22.60;9.63;;;15.10;63.40;;;;;;4140342;28;20088;-64
2021/04/12 07:21:14;;;;;;;22.73;10.50;;;15.10;63.80;;;;;;4139649;28;20072;-62
2021/04/12 07:23:58;;;;;;;17.27;10.50;;;15.00;63.80;;;;;;4140119;28;20037;-62
2021/04/12 07:26:11;;;;;;;17.13;9.40;;;14.70;65.20;;;;;;4139403;28;20364;-62
2021/04/12 07:28:41;;;;;;;20.03;9.23;;;14.70;65.40;;;;;;4140920;28;20064;-62
2021/04/12 07:31:07;;;;;;;26.98;11.50;;;15.00;64.60;;;;;;4138362;28;20046;-65
2021/04/12 07:33:38;;;;;;;18.03;9.70;;;15.10;64.80;;;;;;4140194;28;20080;-60
2021/04/12 07:35:55;;;;;;;18.88;9.07;;;15.00;65.10;;;;;;4140032;28;20557;-68
2021/04/12 07:38:17;;;;;;;17.60;9.13;;;15.20;64.30;;;;;;4139816;28;20084;-61
2021/04/12 07:40:52;;;;;;;14.73;8.53;;;15.30;64.10;;;;;;4141267;28;20069;-62
2021/04/12 07:43:14;;;;;;;19.87;8.27;;;15.60;64.00;;;;;;4139558;28;20533;-64
2021/04/12 07:45:57;;;;;;;20.67;11.13;;;15.60;63.90;;;;;;4140906;28;20034;-61
2021/04/12 07:48:26;;;;;;;14.77;8.33;;;15.70;63.80;;;;;;4138696;28;20037;-63
2021/04/12 07:50:29;;;;;;;12.33;7.90;;;15.90;62.90;;;;;;4138541;28;20034;-67
2021/04/12 07:52:52;;;;;;;11.67;6.87;;;15.90;62.50;;;;;;4139202;28;20105;-61
2021/04/12 07:55:02;;;;;;;12.60;6.83;;;15.80;62.40;;;;;;4140207;28;20084;-63
2021/04/12 07:57:40;;;;;;;15.30;7.25;;;15.80;62.00;;;;;;4140048;28;20104;-60
2021/04/12 07:59:56;;;;;;;11.60;6.73;;;15.90;62.10;;;;;;4139352;28;20073;-67
2021/04/12 08:02:16;;;;;;;12.93;6.47;;;16.00;61.50;;;;;;4139829;28;20501;-64
2021/04/12 08:04:55;;;;;;;10.63;6.47;;;16.10;61.40;;;;;;4139094;28;20022;-61
2021/04/12 08:06:59;;;;;;;14.90;7.10;;;16.30;60.60;;;;;;4140124;28;20092;-62
2021/04/12 08:09:12;;;;;;;13.53;6.53;;;16.40;60.70;;;;;;4139490;28;20137;-62
2021/04/12 08:11:51;;;;;;;12.47;6.27;;;16.30;60.60;;;;;;4140151;28;20042;-64
2021/04/12 08:14:29;;;;;;;10.47;5.87;;;16.30;60.00;;;;;;4139136;28;20029;-65
2021/04/12 08:16:52;;;;;;;9.97;5.70;;;16.20;59.90;;;;;;4142044;28;20034;-66
2021/04/12 08:19:16;;;;;;;11.53;6.40;;;16.30;59.90;;;;;;4142620;28;20425;-62
2021/04/12 08:21:32;;;;;;;9.57;5.50;;;16.30;59.40;;;;;;4141697;28;20429;-62
2021/04/12 08:24:05;;;;;;;9.43;6.23;;;16.30;59.30;;;;;;4143083;28;20038;-62
2021/04/12 08:26:25;;;;;;;13.67;6.97;;;16.40;58.00;;;;;;4141795;28;20076;-62
2021/04/12 08:29:04;;;;;;;14.57;6.47;;;16.50;57.60;;;;;;4142917;28;20856;-63
2021/04/12 08:31:37;;;;;;;10.33;6.00;;;16.80;58.00;;;;;;4141536;28;20072;-68
2021/04/12 08:34:16;;;;;;;13.02;6.93;;;17.10;56.40;;;;;;4142457;28;20034;-62
2021/04/12 08:36:50;;;;;;;12.52;7.25;;;17.20;55.50;;;;;;4142787;28;20770;-64
2021/04/12 08:39:31;;;;;;;12.68;7.45;;;17.30;55.30;;;;;;4141875;28;20054;-61
2021/04/12 08:41:56;;;;;;;10.52;6.70;;;17.20;54.00;;;;;;4142558;28;20037;-65
2021/04/12 08:44:09;;;;;;;11.15;7.03;;;17.30;54.00;;;;;;4140912;28;20084;-62
2021/04/12 08:46:27;;;;;;;13.18;7.85;;;17.40;54.00;;;;;;4142500;28;20034;-61
2021/04/12 08:49:07;;;;;;;12.77;6.70;;;17.40;53.40;;;;;;4140959;28;20046;-61
2021/04/12 08:51:40;;;;;;;11.55;6.65;;;17.60;51.00;;;;;;4142570;28;20045;-61
2021/04/12 08:54:15;;;;;;;10.85;5.20;;;17.60;51.70;;;;;;4141742;28;20094;-63
2021/04/12 08:56:37;;;;;;;11.18;5.45;;;17.80;50.70;;;;;;4141000;28;20084;-62
2021/04/12 08:58:59;;;;;;;9.82;4.50;;;17.90;49.60;;;;;;4142468;28;20467;-61
2021/04/12 09:01:37;;;;;;;9.80;5.32;;;17.80;50.00;;;;;;4141336;28;20026;-62
2021/04/12 09:04:20;;;;;;;8.13;4.43;;;17.70;50.10;;;;;;4142067;28;20061;-63
2021/04/12 09:06:55;;;;;;;6.90;4.10;;;17.90;49.80;;;;;;4140849;28;20084;-70
2021/04/12 09:09:05;;;;;;;7.28;3.75;;;17.90;48.60;;;;;;4141154;28;20562;-61
2021/04/12 09:11:28;;;;;;;8.95;4.07;;;18.10;49.40;;;;;;4142638;28;20084;-61
2021/04/12 09:14:04;;;;;;;9.25;3.90;;;18.30;48.20;;;;;;4141165;28;20042;-63
2021/04/12 09:16:16;;;;;;;7.90;3.90;;;18.30;48.60;;;;;;4141876;28;20049;-63
2021/04/12 09:18:32;;;;;;;7.45;3.40;;;18.40;48.00;;;;;;4140924;28;20050;-62
2021/04/12 09:20:39;;;;;;;8.13;3.45;;;18.50;47.70;;;;;;4142532;28;21721;-69
2021/04/12 09:22:47;;;;;;;6.80;3.17;;;18.70;47.40;;;;;;4141126;28;20038;-66
2021/04/12 09:25:20;;;;;;;9.00;3.25;;;18.50;46.80;;;;;;4142455;28;20484;-62
2021/04/12 09:27:45;;;;;;;4.55;3.25;;;18.60;46.10;;;;;;4140511;28;20046;-66
2021/04/12 09:29:49;;;;;;;5.70;3.38;;;18.60;46.40;;;;;;4142117;28;20992;-62
2021/04/12 09:32:12;;;;;;;11.15;3.17;;;18.70;46.70;;;;;;4140529;28;20034;-65
2021/04/12 09:34:55;;;;;;;6.53;3.20;;;18.80;46.60;;;;;;4141341;28;20080;-62
2021/04/12 09:37:17;;;;;;;7.80;3.17;;;18.90;46.70;;;;;;4142242;28;20054;-70
2021/04/12 09:39:39;;;;;;;4.32;3.53;;;19.00;45.70;;;;;;4140451;28;20038;-61
2021/04/12 09:42:05;;;;;;;6.43;3.45;;;19.10;46.30;;;;;;4142714;28;20088;-63
2021/04/12 09:44:15;;;;;;;7.55;3.75;;;19.10;44.60;;;;;;4140233;28;20106;-62
2021/04/12 09:46:22;;;;;;;6.93;3.13;;;18.90;44.60;;;;;;4142252;28;20045;-65
2021/04/12 09:48:38;;;;;;;9.88;3.72;;;18.90;45.10;;;;;;4140403;28;20643;-62
2021/04/12 09:50:58;;;;;;;11.88;3.40;;;18.90;45.30;;;;;;4141361;28;20033;-65
2021/04/12 09:53:02;;;;;;;5.75;3.28;;;18.90;45.10;;;;;;4140088;28;20127;-62
2021/04/12 09:55:32;;;;;;;4.85;3.38;;;19.00;45.30;;;;;;4142235;28;20042;-61
2021/04/12 09:57:51;;;;;;;9.80;3.30;;;18.90;45.00;;;;;;4140596;28;20100;-64
2021/04/12 10:00:02;;;;;;;7.78;4.18;;;18.90;45.20;;;;;;4141200;28;20030;-65
2021/04/12 10:02:03;;;;;;;;;;;19.00;45.40;;;;;;4140953;28;20372;-62
2021/04/12 10:04:04;;;;;;;8.30;4.00;;;19.10;44.90;;;;;;4142030;28;20448;-60
2021/04/12 10:06:16;;;;;;;7.95;3.70;;;19.10;45.50;;;;;;4139255;28;20042;-62
2021/04/12 10:08:59;;;;;;;8.20;4.15;;;19.00;45.90;;;;;;4141747;28;20450;-62
2021/04/12 10:11:17;;;;;;;5.47;3.75;;;19.00;44.60;;;;;;4140961;28;20034;-63
2021/04/12 10:13:41;;;;;;;7.00;4.13;;;18.90;45.90;;;;;;4140443;28;20041;-63
2021/04/12 10:15:54;;;;;;;6.93;3.95;;;18.90;45.40;;;;;;4140947;28;20029;-62
2021/04/12 10:18:15;;;;;;;7.80;3.55;;;18.80;44.80;;;;;;4139697;28;20099;-60
2021/04/12 10:20:23;;;;;;;7.13;3.47;;;18.80;44.80;;;;;;4141364;28;20072;-62
2021/04/12 10:22:59;;;;;;;6.03;3.55;;;18.70;44.40;;;;;;4140462;28;20426;-63
2021/04/12 10:25:17;;;;;;;10.40;3.22;;;18.80;44.60;;;;;;4141378;28;20034;-69
2021/04/12 10:27:19;;;;;;;11.18;3.90;;;18.80;44.90;;;;;;4140042;28;20498;-63
2021/04/12 10:29:45;;;;;;;6.93;3.97;;;18.80;44.50;;;;;;4140132;28;20041;-65
2021/04/12 10:32:06;;;;;;;9.55;4.07;;;18.80;44.70;;;;;;4140094;28;20037;-64
2021/04/12 10:34:17;;;;;;;11.05;3.40;;;18.90;44.60;;;;;;4141289;28;20076;-70
2021/04/12 10:36:21;;;;;;;;;;;18.90;44.70;;;;;;4140199;28;20096;-63
2021/04/12 10:38:39;;;;;;;9.93;3.78;;;19.00;44.40;;;;;;4141097;28;19979;-61
2021/04/12 10:40:59;;;;;;;6.53;3.92;;;19.10;44.10;;;;;;4139842;28;20477;-62
2021/04/12 10:43:10;;;;;;;4.70;3.17;;;19.30;43.20;;;;;;4140606;28;20100;-61
2021/04/12 10:45:18;;;;;;;12.02;4.35;;;19.20;43.70;;;;;;4139878;28;20093;-63
2021/04/12 10:47:34;;;;;;;10.00;4.45;;;19.30;44.20;;;;;;4140995;28;20046;-61
2021/04/12 10:49:50;;;;;;;4.78;3.30;;;19.40;43.80;;;;;;4139749;28;20054;-62
2021/04/12 10:52:55;;;;;;;6.68;3.97;;;19.50;43.20;;;;;;4140756;28;20521;-62
2021/04/12 10:55:07;;;;;;;8.98;4.07;;;19.60;42.10;;;;;;4108666;28;20050;-62
2021/04/12 10:57:14;;;;;;;8.68;3.45;;;19.60;43.00;;;;;;4136804;28;20041;-66
2021/04/12 11:00:00;;;;;;;7.75;3.67;;;19.60;42.70;;;;;;4138916;28;20038;-61
2021/04/12 11:02:56;;;;;;;5.30;3.25;;;19.60;41.60;;;;;;4139461;28;20545;-62
2021/04/12 11:05:09;;;;;;;9.40;3.70;;;19.40;41.80;;;;;;4137611;28;21183;-68
2021/04/12 11:07:36;;;;;;;8.18;4.10;;;19.50;42.40;;;;;;4132064;28;20054;-61
2021/04/12 11:10:05;;;;;;;10.57;4.03;;;19.60;42.50;;;;;;4139763;28;20080;-63
2021/04/12 11:12:31;;;;;;;9.98;4.10;;;19.60;42.60;;;;;;4140635;28;20080;-61
2021/04/12 11:14:42;;;;;;;6.32;3.60;;;19.90;42.90;;;;;;4138535;28;20161;-68
2021/04/12 11:16:47;;;;;;;7.53;3.53;;;19.90;42.50;;;;;;4140110;28;20100;-63
2021/04/12 11:19:17;;;;;;;8.95;4.40;;;19.80;42.60;;;;;;4139640;28;20418;-60
2021/04/12 11:21:26;;;;;;;10.82;3.70;;;19.80;42.20;;;;;;4141063;28;20038;-62
2021/04/12 11:24:02;;;;;;;10.13;3.35;;;19.80;42.60;;;;;;4139342;28;20030;-62
2021/04/12 11:26:12;;;;;;;10.57;4.35;;;19.90;42.60;;;;;;4137871;28;20038;-61
2021/04/12 11:28:35;;;;;;;6.38;3.70;;;19.90;42.40;;;;;;4139257;28;20501;-67
2021/04/12 11:30:57;;;;;;;13.23;3.58;;;19.90;42.30;;;;;;4140952;28;20025;-62
2021/04/12 11:33:26;;;;;;;11.52;3.40;;;20.00;42.60;;;;;;4139414;28;20057;-61
2021/04/12 11:36:04;;;;;;;6.18;3.25;;;20.10;42.40;;;;;;4139653;28;20038;-65
2021/04/12 11:38:10;;;;;;;5.75;3.25;;;20.10;41.80;;;;;;4139434;28;20054;-62
2021/04/12 11:40:25;;;;;;;6.05;3.70;;;20.10;42.40;;;;;;4139314;28;20067;-64
2021/04/12 11:42:41;;;;;;;9.43;3.75;;;20.10;42.40;;;;;;4139480;28;20060;-63
2021/04/12 11:44:49;;;;;;;10.38;3.67;;;20.30;42.40;;;;;;4139464;28;20081;-61
2021/04/12 11:47:06;;;;;;;7.60;3.75;;;20.30;42.00;;;;;;4140345;28;20482;-67
2021/04/12 11:49:26;;;;;;;6.65;3.28;;;20.30;42.00;;;;;;4139381;28;20077;-69
2021/04/12 11:51:59;;;;;;;10.57;3.15;;;20.40;42.30;;;;;;4142957;28;20080;-65
2021/04/12 11:54:04;;;;;;;8.75;3.70;;;20.50;42.20;;;;;;4142424;28;20069;-67
2021/04/12 11:56:29;;;;;;;9.63;3.50;;;20.60;42.00;;;;;;4143148;28;20635;-62
2021/04/12 11:58:37;;;;;;;7.93;3.78;;;20.60;41.80;;;;;;4142332;28;20104;-61
2021/04/12 12:01:11;;;;;;;9.25;4.10;;;20.50;41.90;;;;;;4143405;28;20100;-63
2021/04/12 12:03:17;;;;;;;5.47;3.63;;;20.30;41.80;;;;;;4142708;28;20050;-63
2021/04/12 12:05:34;;;;;;;8.73;3.58;;;20.20;42.20;;;;;;4143971;28;20034;-58
2021/04/12 12:07:48;;;;;;;8.90;4.78;;;20.30;42.20;;;;;;4141906;28;20038;-61
2021/04/12 12:10:22;;;;;;;15.48;4.53;;;20.50;42.30;;;;;;4143262;28;20474;-60
2021/04/12 12:12:47;;;;;;;8.57;3.85;;;20.60;42.30;;;;;;4143284;28;20083;-62
2021/04/12 12:15:12;;;;;;;7.03;3.63;;;20.80;41.80;;;;;;4142256;28;20537;-61
2021/04/12 12:17:31;;;;;;;9.65;4.22;;;20.80;41.90;;;;;;4143338;28;20745;-64